Flight Track Log - Related Links

Times and Time Zones

All times are in EDT time to prevent confusion due to time zone crossing. See the N75ZM flight status page for this flight to view local times or setup timezone preferences in your user account.

Time Position Orientation Groundspeed Altitude Reporting Facility
EDT Latitude Longitude Course Direction KTS km/h feet Rate Location/Type
Tue 16h04:08 33.8667 -84.2833 90° East 121 224 2.200  Level Atlanta TRACON
Tue 16h05:08 33.8667 -84.2500 90° East 135 249 3.000 450 Climbing Atlanta TRACON
Tue 16h06:08 33.8833 -84.2000 68° East 179 332 3.100 684 Climbing Atlanta TRACON
Tue 16h07:02 33.9000 -84.1667 59° Northeast 137 254 4.300 1.000 Climbing Atlanta TRACON
Tue 16h08:08 33.9333 -84.1167 51° Northeast 139 257 5.100 381 Climbing Atlanta TRACON
Tue 16h09:08 33.9500 -84.0667 68° East 171 317 5.100 -50 Level Atlanta TRACON
Tue 16h10:08 33.9667 -84.0167 68° East 181 335 5.000  Descending Atlanta TRACON
Tue 16h11:02 33.9667 -83.9500 90° East 177 328 5.100  Climbing Atlanta TRACON
Tue 16h12:08 33.9667 -83.9000 90° East 178 330 5.000 429 Descending Atlanta TRACON
Tue 16h13:08 33.9667 -83.8500 90° East 143 266 6.000 750 Climbing Atlanta TRACON
Tue 16h14:08 33.9500 -83.8000 112° Southeast 146 270 6.500 550 Climbing Atlanta TRACON
Tue 16h15:08 33.9500 -83.7500 90° East 147 272 7.100 600 Climbing Atlanta TRACON
Tue 16h16:08 33.9500 -83.7000 90° East 150 278 7.700 650 Climbing Atlanta TRACON
Tue 16h17:08 33.9500 -83.6500 90° East 150 278 8.400 650 Climbing Atlanta TRACON
Tue 16h18:08 33.9667 -83.6000 68° East 146 270 9.000 368 Climbing Atlanta TRACON
Tue 16h19:02 33.9667 -83.5500 90° East 163 303 9.100  Climbing Atlanta TRACON
Tue 16h20:02 33.9667 -83.4833 90° East 175 323 9.000  Descending Atlanta TRACON
Tue 16h21:02 33.9667 -83.4333 90° East 173 320 9.100  Climbing Atlanta TRACON
Tue 16h22:02 33.9833 -83.3667 73° East 175 323 9.000  Descending Atlanta TRACON
Tue 16h23:02 33.9833 -83.3167 90° East 173 320 9.100  Climbing Atlanta TRACON
Tue 16h23:45 33.9839 -83.2772 89° East 166 307 9.000  Descending Atlanta Center
Tue 16h24:45 33.9897 -83.2219 83° East 166 307 9.100  Climbing Atlanta Center
Tue 16h25:45 33.9914 -83.1669 88° East 172 319 9.000  Descending Atlanta Center
Tue 16h26:45 33.9975 -83.1117 82° East 172 319 9.100 50 Climbing Atlanta Center
Tue 16h27:45 34.0011 -83.0517 86° East 172 319 9.100  Level Atlanta Center
Tue 16h28:45 34.0069 -82.9914 83° East 178 330 9.100 -50 Level Atlanta Center
Tue 16h29:45 34.0106 -82.9336 86° East 178 330 9.000  Descending Atlanta Center
Tue 16h30:45 34.0161 -82.8733 84° East 178 330 9.100 50 Climbing Atlanta Center
Tue 16h31:45 34.0197 -82.8183 85° East 178 330 9.100  Level Atlanta Center
Tue 16h32:45 34.0233 -82.7581 86° East 178 330 9.100  Level Atlanta Center
Tue 16h33:45 34.0269 -82.7003 86° East 178 330 9.100  Level Atlanta Center
Tue 16h34:45 34.0325 -82.6400 84° East 178 330 9.100  Level Atlanta Center
Tue 16h35:45 34.0381 -82.5797 84° East 178 330 9.100  Level Atlanta Center
Tue 16h36:45 34.0417 -82.5197 86° East 178 330 9.100  Level Atlanta Center
Tue 16h37:45 34.0431 -82.4619 88° East 178 330 9.100  Level Atlanta Center
Tue 16h38:45 34.0483 -82.4042 84° East 178 330 9.100  Level Atlanta Center
Tue 16h39:45 34.0519 -82.3464 86° East 178 330 9.100  Level Atlanta Center
Tue 16h40:45 34.0553 -82.2911 86° East 178 330 9.100  Level Atlanta Center
Tue 16h41:45 34.0586 -82.2333 86° East 178 330 9.100  Level Atlanta Center
Tue 16h42:45 34.0639 -82.1781 83° East 178 330 9.100  Level Atlanta Center
Tue 16h43:45 34.0672 -82.1203 86° East 178 330 9.100  Level Atlanta Center
Tue 16h44:45 34.0706 -82.0603 86° East 178 330 9.100  Level Atlanta Center
Tue 16h45:45 34.0739 -82.0050 86° East 178 330 9.100  Level Atlanta Center
Tue 16h46:45 34.0792 -81.9469 84° East 178 330 9.100  Level Atlanta Center
Tue 16h47:45 34.0822 -81.8869 86° East 178 330 9.100  Level Atlanta Center
Tue 16h48:45 34.0833 -81.8367 88° East 178 330 9.100 -50 Level Atlanta Center
Tue 16h49:45 34.0886 -81.7789 84° East 178 330 9.000 -100 Descending Atlanta Center
Tue 16h51:00 34.0932 -81.7106 85° East  Level FlightAware Approximate
Tue 16h58:00 34.1183 -81.3278 85° East  Level FlightAware Approximate
Tue 16h59:00 34.1218 -81.2731 86° East  Level FlightAware Approximate
Tue 17h00:00 34.1253 -81.2184 86° East  Level FlightAware Approximate
Tue 17h01:00 34.1287 -81.1637 86° East  Level FlightAware Approximate
Tue 17h02:00 34.1321 -81.1090 86° East  Level FlightAware Approximate
Tue 17h03:00 34.1355 -81.0543 86° East  Level FlightAware Approximate
Tue 17h04:00 34.1389 -80.9996 86° East  Level FlightAware Approximate
Tue 17h05:00 34.1423 -80.9448 86° East  Level FlightAware Approximate
Tue 17h06:00 34.1456 -80.8901 86° East  Level FlightAware Approximate
Tue 17h07:00 34.1489 -80.8354 86° East  Level FlightAware Approximate
Tue 17h08:00 34.1517 -80.7804 87° East  Level FlightAware Approximate
Tue 17h09:00 34.1542 -80.7256 87° East  Level FlightAware Approximate
Tue 17h10:00 34.1567 -80.6708 87° East  Level FlightAware Approximate
Tue 17h11:00 34.1592 -80.6160 87° East  Level FlightAware Approximate
Tue 17h12:00 34.1616 -80.5612 87° East  Level FlightAware Approximate
Tue 17h13:00 34.1641 -80.5064 87° East  Level FlightAware Approximate
Tue 17h14:00 34.1665 -80.4516 87° East  Level FlightAware Approximate
Tue 17h15:00 34.1688 -80.3968 87° East  Level FlightAware Approximate
Tue 17h16:00 34.1712 -80.3420 87° East  Level FlightAware Approximate
Tue 17h17:00 34.1735 -80.2871 87° East  Level FlightAware Approximate
Tue 17h18:00 34.1758 -80.2323 87° East  Level FlightAware Approximate
Tue 17h19:00 34.1781 -80.1775 87° East  Level FlightAware Approximate
Tue 17h20:00 34.1804 -80.1227 87° East  Level FlightAware Approximate
Tue 17h21:00 34.1826 -80.0678 87° East  Level FlightAware Approximate
Tue 17h22:00 34.1854 -80.0130 86° East  Level FlightAware Approximate
Tue 17h23:00 34.1883 -79.9583 86° East  Level FlightAware Approximate
Tue 17h24:00 34.1913 -79.9035 86° East  Level FlightAware Approximate
Tue 17h25:00 34.1942 -79.8487 86° East  Level FlightAware Approximate
Tue 17h26:00 34.1971 -79.7939 86° East  Level FlightAware Approximate
Tue 17h27:00 34.2000 -79.7391 86° East  Level FlightAware Approximate
Tue 17h28:00 34.2029 -79.6843 86° East  Level FlightAware Approximate
Tue 17h29:00 34.2057 -79.6295 86° East  Level FlightAware Approximate
Tue 17h30:00 34.2085 -79.5747 86° East  Level FlightAware Approximate
Tue 17h31:00 34.2113 -79.5198 86° East  Level FlightAware Approximate
Tue 17h32:00 34.2140 -79.4650 87° East  Level FlightAware Approximate
Tue 17h33:00 34.2168 -79.4102 87° East  Level FlightAware Approximate
Tue 17h34:00 34.2196 -79.3539 87° East  Level FlightAware Approximate
Tue 17h35:00 34.2223 -79.2977 87° East  Level FlightAware Approximate
Tue 17h36:00 34.2250 -79.2414 87° East  Level FlightAware Approximate
Tue 17h37:00 34.2277 -79.1851 87° East  Level FlightAware Approximate
Tue 17h38:00 34.2304 -79.1288 87° East  Level FlightAware Approximate
Tue 17h39:00 34.2331 -79.0725 87° East  Level FlightAware Approximate
Tue 17h40:00 34.2349 -79.0162 88° East  Level FlightAware Approximate
Tue 17h41:00 34.2365 -78.9598 88° East  Level FlightAware Approximate
Tue 17h42:00 34.2382 -78.9031 88° East  Level FlightAware Approximate
Tue 17h43:00 34.2398 -78.8464 88° East  Level FlightAware Approximate
Tue 17h44:00 34.2414 -78.7897 88° East  Level FlightAware Approximate
Tue 17h45:00 34.2430 -78.7330 88° East  Level FlightAware Approximate
Tue 17h46:00 34.2445 -78.6763 88° East  Level FlightAware Approximate
Tue 17h47:00 34.2460 -78.6196 88° East  Level FlightAware Approximate
Tue 17h48:00 34.2475 -78.5629 88° East  Level FlightAware Approximate
Tue 17h49:00 34.2490 -78.5062 88° East  Level FlightAware Approximate
Tue 17h50:00 34.2500 -78.4494 90° East  Level FlightAware Approximate
Tue 17h51:00 34.2501 -78.3927 90° East  Level FlightAware Approximate
Tue 17h52:00 34.2501 -78.3360 90° East  Level FlightAware Approximate
Tue 17h53:00 34.2501 -78.2792 90° East  Level FlightAware Approximate
Tue 17h54:00 34.2501 -78.2225 90° East  Level FlightAware Approximate
Tue 17h55:00 34.2501 -78.1657 90° East  Level FlightAware Approximate
Tue 17h56:00 34.2511 -78.1091 80° East  Level FlightAware Approximate
Tue 17h57:00 34.2591 -78.0532 80° East  Level FlightAware Approximate
Tue 17h58:00 34.2667 -77.9972 90° East  Level FlightAware Approximate
Tue 17h59:00 34.2667 -77.9405 90° East  Level FlightAware Approximate
Tue 18h00:00 34.2667 -77.9000 90° East  Level FlightAware Approximate

Login

Don't have an account? Register now (free) for customized features, flight alerts, and more!